Garopaba, Brazil
Current Conditions -  °F | °C
As of 5:00 AM on Saturday 29 Nov 2014 (Local Time) from SBFL Reporting Station
Few Clouds Few Clouds  
Wind Chill: 72°   Ceiling: Unl
Heat Index: 72°   Visibility: 6mi
Dew Point: 66°   Wind: 2mph
Humidity: 83%   Direction: 40°NE
Pressure: 30.06"   Gusts: NA
Location:  28.07°S, 48.67°W
Report Text: SBFL 290700Z 04002KT 9999 FEW025 22/19 Q1018
Loading
Personal Weather Stations






























Interactive Weather Map New forecast layout! Learn more

10-Day Weather Forecast

Advertisements
Track Severe Weather on mobile